createdAt,value
2018-12-31T00:00:03.188Z,4.70
2018-12-31T00:02:41.220Z,4.70
2018-12-31T00:05:19.043Z,4.70
2018-12-31T00:07:55.720Z,4.70
2018-12-31T00:10:39.300Z,4.70
2018-12-31T00:16:20.191Z,4.60
2018-12-31T00:19:09.799Z,4.60
2018-12-31T00:25:12.971Z,4.60
2018-12-31T00:27:49.085Z,4.70
2018-12-31T00:30:36.025Z,4.70
2018-12-31T00:39:20.352Z,4.70
2018-12-31T00:45:15.833Z,4.60
2018-12-31T01:03:20.853Z,4.60
2018-12-31T01:06:00.587Z,4.60
2018-12-31T01:08:35.597Z,4.70
2018-12-31T01:11:10.718Z,4.60
2018-12-31T01:13:47.141Z,4.70
2018-12-31T01:16:23.163Z,4.60
2018-12-31T01:18:59.903Z,4.60
2018-12-31T01:21:39.387Z,4.60
2018-12-31T01:24:14.839Z,4.70
2018-12-31T01:26:49.926Z,4.60
2018-12-31T01:29:26.329Z,4.60
2018-12-31T01:32:01.224Z,4.60
2018-12-31T01:34:38.621Z,4.60
2018-12-31T01:41:17.254Z,4.60
2018-12-31T01:43:56.466Z,4.50
2018-12-31T01:46:31.631Z,4.50
2018-12-31T01:49:06.570Z,4.40
2018-12-31T01:51:41.522Z,4.50
2018-12-31T01:54:17.976Z,4.40
2018-12-31T01:56:59.635Z,4.20
2018-12-31T01:59:35.236Z,4.30
2018-12-31T02:02:13.301Z,4.30
2018-12-31T02:04:49.523Z,4.40
2018-12-31T02:07:26.607Z,4.40
2018-12-31T02:10:01.986Z,4.40
2018-12-31T02:12:37.240Z,4.40
2018-12-31T02:15:12.767Z,4.30
2018-12-31T02:17:47.664Z,4.40
2018-12-31T02:20:22.928Z,4.50
2018-12-31T02:22:59.041Z,4.50
2018-12-31T02:25:34.400Z,4.50
2018-12-31T02:28:11.654Z,4.40
2018-12-31T02:30:47.494Z,4.40
2018-12-31T02:33:22.901Z,4.40
2018-12-31T02:35:57.837Z,4.40
2018-12-31T02:38:32.887Z,4.50
2018-12-31T02:41:08.217Z,4.50
2018-12-31T02:43:44.286Z,4.50
2018-12-31T02:46:21.190Z,4.50
2018-12-31T02:48:56.480Z,4.50
2018-12-31T02:51:29.254Z,4.50
2018-12-31T02:54:04.949Z,4.50
2018-12-31T02:56:41.508Z,4.50
2018-12-31T02:59:16.247Z,4.50
2018-12-31T03:01:51.101Z,4.50
2018-12-31T03:04:26.219Z,4.50
2018-12-31T03:07:02.304Z,4.50
2018-12-31T03:09:36.914Z,4.50
2018-12-31T03:12:12.401Z,4.60
2018-12-31T03:14:47.168Z,4.50
2018-12-31T03:17:28.857Z,4.60
2018-12-31T03:20:07.847Z,4.60
2018-12-31T03:22:42.562Z,4.60
2018-12-31T03:25:18.350Z,4.50
2018-12-31T03:27:54.188Z,4.50
2018-12-31T03:30:30.304Z,4.60
2018-12-31T03:33:04.965Z,4.50
2018-12-31T03:35:40.149Z,4.40
2018-12-31T03:38:15.089Z,4.60
2018-12-31T03:40:50.127Z,4.60
2018-12-31T03:43:26.080Z,4.50
2018-12-31T03:46:01.503Z,4.50
2018-12-31T03:48:40.181Z,4.50
2018-12-31T03:51:17.031Z,4.60
2018-12-31T03:53:52.394Z,4.50
2018-12-31T03:56:27.555Z,4.60
2018-12-31T03:59:02.663Z,4.60
2018-12-31T04:01:35.569Z,4.70
2018-12-31T04:04:11.265Z,4.70
2018-12-31T04:06:46.492Z,4.60
2018-12-31T04:09:21.730Z,4.60
2018-12-31T04:11:57.452Z,4.70
2018-12-31T04:14:32.894Z,4.70
2018-12-31T04:17:09.142Z,4.80
2018-12-31T04:19:44.082Z,4.70
2018-12-31T04:22:17.886Z,4.70
2018-12-31T04:24:52.757Z,4.70
2018-12-31T04:27:28.646Z,4.70
2018-12-31T04:30:06.755Z,4.70
2018-12-31T04:32:46.341Z,4.80
2018-12-31T04:35:21.757Z,4.70
2018-12-31T04:38:07.573Z,4.70
2018-12-31T04:40:41.104Z,4.80
2018-12-31T04:43:16.020Z,4.80
2018-12-31T04:45:48.967Z,4.80
2018-12-31T04:51:22.122Z,4.80
2018-12-31T04:53:58.411Z,4.80
2018-12-31T04:56:41.923Z,4.80
2018-12-31T04:59:14.213Z,4.70
2018-12-31T05:04:41.642Z,4.80
2018-12-31T05:07:11.136Z,4.90
2018-12-31T05:09:47.043Z,4.90
2018-12-31T05:12:16.276Z,4.80
2018-12-31T05:14:45.510Z,4.80
2018-12-31T05:17:27.807Z,4.90
2018-12-31T05:20:15.413Z,4.90
2018-12-31T05:22:50.663Z,4.90
2018-12-31T05:28:25.754Z,4.80
2018-12-31T05:33:54.855Z,4.80
2018-12-31T05:36:46.011Z,4.80
2018-12-31T05:39:21.392Z,4.90
2018-12-31T05:41:55.939Z,5.00
2018-12-31T05:47:24.841Z,4.80
2018-12-31T05:49:54.157Z,4.80
2018-12-31T05:52:36.442Z,4.80
2018-12-31T05:55:11.883Z,4.90
2018-12-31T05:57:59.062Z,4.90
2018-12-31T06:00:44.312Z,5.00
2018-12-31T06:03:13.532Z,5.00
2018-12-31T06:05:42.744Z,5.10
2018-12-31T06:08:12.787Z,5.00
2018-12-31T06:10:42.017Z,4.90
2018-12-31T06:13:11.266Z,4.80
2018-12-31T06:15:40.467Z,4.90
2018-12-31T06:21:30.321Z,5.00
2018-12-31T06:26:57.761Z,5.10
2018-12-31T06:29:42.690Z,5.00
2018-12-31T06:32:13.380Z,4.90
2018-12-31T06:34:49.007Z,4.90
2018-12-31T06:37:23.225Z,4.90
2018-12-31T06:40:00.305Z,5.00
2018-12-31T06:42:51.225Z,5.10
2018-12-31T06:45:32.655Z,5.10
2018-12-31T06:48:02.846Z,5.20
2018-12-31T06:50:32.026Z,5.30
2018-12-31T06:58:58.001Z,5.30
2018-12-31T07:04:24.725Z,5.40
2018-12-31T07:06:57.397Z,5.40
2018-12-31T07:12:35.614Z,5.40
2018-12-31T07:18:08.849Z,5.50
2018-12-31T07:20:43.513Z,5.50
2018-12-31T07:23:18.475Z,5.60
2018-12-31T07:26:10.731Z,5.70
2018-12-31T07:28:46.695Z,5.50
2018-12-31T07:31:19.386Z,5.50
2018-12-31T07:33:54.128Z,5.40
2018-12-31T07:36:28.290Z,5.30
2018-12-31T07:39:04.668Z,5.40
2018-12-31T07:41:40.090Z,5.40
2018-12-31T07:44:14.633Z,5.40
2018-12-31T07:46:51.179Z,5.40
2018-12-31T07:52:24.346Z,5.50
2018-12-31T07:55:01.535Z,5.50
2018-12-31T07:57:34.878Z,5.50
2018-12-31T08:00:10.053Z,5.40
2018-12-31T08:02:54.223Z,5.40
2018-12-31T08:05:23.399Z,5.40
2018-12-31T08:07:56.210Z,5.30
2018-12-31T08:13:37.924Z,5.40
2018-12-31T08:16:13.570Z,5.50
2018-12-31T08:18:50.204Z,5.60
2018-12-31T08:21:28.858Z,5.60
2018-12-31T08:23:58.036Z,5.70
2018-12-31T08:26:27.376Z,5.70
2018-12-31T08:28:56.538Z,5.70
2018-12-31T08:31:25.758Z,5.80
2018-12-31T08:33:54.997Z,5.80
2018-12-31T08:36:31.562Z,5.80
2018-12-31T08:39:00.767Z,5.80
2018-12-31T08:41:29.984Z,5.80
2018-12-31T08:43:59.745Z,5.80
2018-12-31T08:46:29.985Z,5.90
2018-12-31T08:48:59.177Z,5.90
2018-12-31T08:51:32.232Z,5.90
2018-12-31T08:54:01.410Z,5.90
2018-12-31T08:56:33.985Z,5.90
2018-12-31T08:59:09.047Z,5.90
2018-12-31T09:01:38.252Z,6.00
2018-12-31T09:04:07.450Z,6.00
2018-12-31T09:09:45.491Z,6.10
2018-12-31T09:12:20.131Z,6.20
2018-12-31T09:17:52.623Z,6.20
2018-12-31T09:20:25.691Z,6.30
2018-12-31T09:23:00.990Z,6.40
2018-12-31T09:25:37.503Z,6.50
2018-12-31T09:28:12.675Z,6.60
2018-12-31T09:30:49.663Z,6.60
2018-12-31T09:33:24.436Z,6.60
2018-12-31T09:35:59.310Z,6.60
2018-12-31T09:38:36.077Z,6.60
2018-12-31T09:41:10.832Z,6.60
2018-12-31T09:43:46.966Z,6.60
2018-12-31T09:46:21.231Z,6.60
2018-12-31T09:49:06.743Z,6.50
2018-12-31T09:51:42.177Z,6.60
2018-12-31T09:57:14.862Z,6.60
2018-12-31T09:59:52.203Z,6.50
2018-12-31T10:02:26.985Z,6.40
2018-12-31T10:05:01.862Z,6.40
2018-12-31T10:07:38.087Z,6.50
2018-12-31T10:10:12.642Z,6.50
2018-12-31T10:12:43.649Z,6.50
2018-12-31T10:15:18.210Z,6.70
2018-12-31T10:17:54.332Z,6.90
2018-12-31T10:20:29.252Z,6.90
2018-12-31T10:23:04.950Z,7.00
2018-12-31T10:25:40.449Z,7.10
2018-12-31T10:28:15.609Z,7.20
2018-12-31T10:30:52.147Z,7.40
2018-12-31T10:33:28.623Z,7.40
2018-12-31T10:36:04.094Z,7.50
2018-12-31T10:38:40.422Z,7.60
2018-12-31T10:41:14.035Z,7.70
2018-12-31T10:43:50.461Z,7.70
2018-12-31T10:46:27.651Z,7.80
2018-12-31T10:49:02.434Z,7.80
2018-12-31T10:51:38.906Z,7.90
2018-12-31T10:54:14.576Z,8.10
2018-12-31T10:56:50.839Z,8.20
2018-12-31T11:04:27.458Z,8.20
2018-12-31T11:07:02.918Z,8.30
2018-12-31T11:09:38.294Z,8.30
2018-12-31T11:12:13.696Z,8.40
2018-12-31T11:14:48.966Z,8.40
2018-12-31T11:17:25.620Z,8.30
2018-12-31T11:20:00.954Z,8.10
2018-12-31T11:22:35.906Z,8.10
2018-12-31T11:25:10.729Z,8.10
2018-12-31T11:27:43.642Z,8.10
2018-12-31T11:30:19.017Z,8.20
2018-12-31T11:32:53.957Z,8.30
2018-12-31T11:35:29.291Z,8.40
2018-12-31T11:38:04.951Z,8.40
2018-12-31T11:40:39.781Z,8.50
2018-12-31T11:43:12.671Z,8.60
2018-12-31T11:45:45.734Z,8.60
2018-12-31T11:48:21.290Z,8.70
2018-12-31T11:53:49.400Z,8.80
2018-12-31T11:56:31.329Z,8.60
2018-12-31T11:59:05.887Z,8.40
2018-12-31T12:01:40.658Z,8.50
2018-12-31T12:04:16.075Z,8.60
2018-12-31T12:06:55.923Z,8.70
2018-12-31T12:09:31.444Z,8.70
2018-12-31T12:12:10.170Z,8.70
2018-12-31T12:14:45.709Z,8.70
2018-12-31T12:17:22.305Z,8.70
2018-12-31T12:20:13.157Z,8.70
2018-12-31T12:23:00.691Z,8.90
2018-12-31T12:25:36.020Z,8.80
2018-12-31T12:28:16.045Z,8.80
2018-12-31T12:30:53.798Z,9.00
2018-12-31T12:33:26.644Z,9.00
2018-12-31T12:36:02.747Z,9.10
2018-12-31T12:38:39.258Z,9.20
2018-12-31T12:41:19.493Z,9.40
2018-12-31T12:43:54.413Z,9.40
2018-12-31T12:46:27.658Z,9.40
2018-12-31T12:49:03.190Z,9.40
2018-12-31T12:51:39.059Z,9.40
2018-12-31T12:54:14.763Z,9.40
2018-12-31T12:56:50.452Z,9.30
2018-12-31T12:59:26.916Z,9.30
2018-12-31T13:02:01.944Z,9.30
2018-12-31T13:04:37.082Z,9.20
2018-12-31T13:07:13.370Z,9.20
2018-12-31T13:09:52.286Z,9.20
2018-12-31T13:35:26.043Z,9.60
2018-12-31T13:38:02.091Z,9.60
2018-12-31T13:40:38.345Z,9.80
2018-12-31T13:43:20.074Z,9.90
2018-12-31T13:46:09.137Z,9.90
2018-12-31T13:48:49.778Z,9.80
2018-12-31T13:51:25.838Z,9.80
2018-12-31T13:54:03.545Z,9.70
2018-12-31T13:56:40.257Z,9.60
2018-12-31T13:59:15.973Z,9.60
2018-12-31T14:01:59.158Z,9.70
2018-12-31T14:07:16.649Z,9.60
2018-12-31T14:09:52.770Z,9.50
2018-12-31T14:12:31.204Z,9.40
2018-12-31T14:15:07.023Z,9.30
2018-12-31T14:17:43.155Z,9.40
2018-12-31T14:20:19.290Z,9.50
2018-12-31T14:22:53.976Z,9.70
2018-12-31T14:25:29.313Z,9.70
2018-12-31T14:28:07.798Z,9.70
2018-12-31T14:30:44.773Z,9.70
2018-12-31T14:33:20.588Z,9.60
2018-12-31T14:35:56.703Z,9.30
2018-12-31T14:38:32.054Z,9.20
2018-12-31T14:41:07.327Z,9.20
2018-12-31T14:43:42.840Z,9.10
2018-12-31T14:46:20.905Z,9.00
2018-12-31T14:48:57.977Z,9.00
2018-12-31T14:51:35.419Z,9.00
2018-12-31T14:54:14.587Z,9.00
2018-12-31T14:56:52.231Z,8.90
2018-12-31T14:59:30.001Z,8.70
2018-12-31T15:02:05.284Z,8.60
2018-12-31T15:04:40.917Z,8.70
2018-12-31T15:07:21.013Z,8.60
2018-12-31T15:13:31.120Z,8.60
2018-12-31T15:16:20.272Z,8.60
2018-12-31T15:22:28.842Z,8.60
2018-12-31T15:28:14.126Z,8.50
2018-12-31T15:31:04.020Z,8.40
2018-12-31T15:34:08.729Z,8.30
2018-12-31T15:37:08.662Z,8.30
2018-12-31T15:51:51.898Z,8.20
2018-12-31T16:02:29.263Z,8.20
2018-12-31T16:11:07.739Z,8.10
2018-12-31T17:37:42.689Z,6.90
2018-12-31T17:47:41.677Z,7.60
2018-12-31T17:56:36.089Z,7.30
2018-12-31T18:02:27.344Z,7.30
2018-12-31T18:05:09.281Z,7.40
2018-12-31T18:31:41.599Z,6.90
2018-12-31T18:34:42.161Z,6.90
2018-12-31T18:49:27.348Z,6.60
2018-12-31T19:07:18.751Z,6.80
2018-12-31T19:10:25.162Z,6.90
2018-12-31T19:13:01.034Z,6.80
2018-12-31T19:18:33.861Z,6.70
2018-12-31T19:39:27.992Z,6.60
2018-12-31T19:54:02.587Z,6.60
2018-12-31T20:20:28.082Z,6.60
2018-12-31T20:23:09.349Z,6.70
2018-12-31T20:25:55.957Z,6.50
2018-12-31T20:28:38.944Z,6.40
2018-12-31T20:31:31.527Z,6.40
2018-12-31T20:34:24.758Z,6.50
2018-12-31T20:40:00.890Z,6.50
2018-12-31T20:42:46.034Z,6.40
2018-12-31T21:24:58.174Z,6.60
2018-12-31T21:27:36.193Z,6.60
2018-12-31T21:33:10.509Z,6.60
2018-12-31T21:38:58.665Z,6.70
2018-12-31T21:44:34.547Z,6.70
2018-12-31T21:50:29.388Z,6.70
2018-12-31T22:54:07.994Z,6.60
2018-12-31T22:56:44.057Z,6.60
2018-12-31T22:59:22.594Z,6.60
2018-12-31T23:01:56.544Z,6.60
2018-12-31T23:07:29.805Z,6.70
2018-12-31T23:13:43.507Z,6.60
2018-12-31T23:40:43.219Z,6.60
2018-12-31T23:43:21.660Z,6.70
2018-12-31T23:45:58.524Z,6.60
2018-12-31T23:48:37.509Z,6.70
2018-12-31T23:51:14.542Z,6.70
2018-12-31T23:53:52.343Z,6.60
2018-12-31T23:56:29.146Z,6.60
2018-12-31T23:59:04.716Z,6.60
